Time;durP1;ratioP1;P1;durP2;ratioP2;P2;SDS_P1;SDS_P2;PMS_P1;PMS_P2;Temp;Humidity;BMP_temperature;BMP_pressure;BME280_temperature;BME280_humidity;BME280_pressure;Samples;Min_cycle;Max_cycle;Signal;HPM_P1;HPM_P2
2023/12/23 00:03:17;;;;;;;65.57;35.65;;;;;;;;;;10320498;28;20417;-84
2023/12/23 00:08:31;;;;;;;68.33;36.67;;;;;;;;;;10317253;28;20421;-84
2023/12/23 00:13:33;;;;;;;67.07;37.77;;;;;;;;;;10321240;28;20405;-84
2023/12/23 00:18:35;;;;;;;71.50;37.90;;;;;;;;;;10323277;28;20397;-84
2023/12/23 00:23:40;;;;;;;70.47;38.13;;;;;;;;;;10318182;28;20538;-84
2023/12/23 00:28:42;;;;;;;62.95;35.30;;;;;;;;;;10318163;28;20891;-83
2023/12/23 00:33:47;;;;;;;70.75;36.55;;;;;;;;;;10329193;28;20416;-84
2023/12/23 00:38:51;;;;;;;62.70;34.67;;;;;;;;;;10320173;28;20412;-84
2023/12/23 00:43:53;;;;;;;65.53;36.77;;;;;;;;;;10325538;28;20482;-84
2023/12/23 00:48:56;;;;;;;61.80;35.75;;;;;;;;;;10325670;28;20484;-84
2023/12/23 00:54:00;;;;;;;63.97;35.40;;;;;;;;;;10322772;28;20459;-84
2023/12/23 00:59:03;;;;;;;62.60;35.67;;;;;;;;;;10324601;28;20405;-84
2023/12/23 01:04:05;;;;;;;62.57;34.73;;;;;;;;;;10323920;28;20526;-84
2023/12/23 01:09:09;;;;;;;66.60;34.40;;;;;;;;;;10320684;28;20460;-84
2023/12/23 01:14:11;;;;;;;63.90;33.60;;;;;;;;;;10322480;28;20436;-84
2023/12/23 01:19:14;;;;;;;60.55;33.55;;;;;;;;;;10323547;28;20413;-84
2023/12/23 01:24:18;;;;;;;58.92;33.63;;;;;;;;;;10321706;28;20468;-84
2023/12/23 01:29:20;;;;;;;63.17;33.57;;;;;;;;;;10320227;28;20484;-84
2023/12/23 01:34:22;;;;;;;61.40;34.80;;;;;;;;;;10325556;28;20471;-84
2023/12/23 01:39:26;;;;;;;59.53;32.10;;;;;;;;;;10320999;28;20412;-84
2023/12/23 01:44:28;;;;;;;56.90;31.83;;;;;;;;;;10324467;28;20915;-84
2023/12/23 01:49:31;;;;;;;59.07;32.13;;;;;;;;;;10327343;28;20460;-83
2023/12/23 01:54:35;;;;;;;58.95;32.70;;;;;;;;;;10324025;28;20420;-84
2023/12/23 01:59:38;;;;;;;63.90;32.57;;;;;;;;;;10333154;28;20409;-84
2023/12/23 02:04:40;;;;;;;59.45;31.92;;;;;;;;;;10332255;28;20890;-84
2023/12/23 02:09:44;;;;;;;61.10;32.10;;;;;;;;;;10331133;28;20907;-84
2023/12/23 02:14:52;;;;;;;60.30;32.58;;;;;;;;;;10329041;28;20478;-84
2023/12/23 02:19:54;;;;;;;61.65;32.05;;;;;;;;;;10331060;28;20577;-84
2023/12/23 02:24:58;;;;;;;56.80;32.10;;;;;;;;;;10330313;28;20454;-84
2023/12/23 02:30:01;;;;;;;58.77;31.90;;;;;;;;;;10327719;28;20401;-84
2023/12/23 02:35:04;;;;;;;58.80;31.13;;;;;;;;;;10332075;28;20412;-83
2023/12/23 02:40:09;;;;;;;57.33;31.55;;;;;;;;;;10311661;28;20523;-84
2023/12/23 02:45:12;;;;;;;58.05;31.15;;;;;;;;;;10331979;28;20794;-84
2023/12/23 02:50:14;;;;;;;55.55;31.80;;;;;;;;;;10327608;28;20959;-84
2023/12/23 02:55:19;;;;;;;59.67;32.03;;;;;;;;;;10293453;28;20487;-84
2023/12/23 03:00:21;;;;;;;60.90;32.28;;;;;;;;;;10325529;28;20452;-84
2023/12/23 03:05:23;;;;;;;56.70;31.40;;;;;;;;;;10332027;28;20490;-84
2023/12/23 03:10:27;;;;;;;59.85;31.48;;;;;;;;;;10320467;28;20477;-84
2023/12/23 03:15:30;;;;;;;59.63;31.45;;;;;;;;;;10329960;28;20948;-84
2023/12/23 03:20:32;;;;;;;59.07;30.47;;;;;;;;;;10329341;28;20405;-84
2023/12/23 03:25:36;;;;;;;57.58;30.63;;;;;;;;;;10328190;28;20507;-83
2023/12/23 03:30:38;;;;;;;56.78;30.67;;;;;;;;;;10325382;28;20887;-83
2023/12/23 03:35:41;;;;;;;54.58;29.25;;;;;;;;;;10325648;28;20823;-84
2023/12/23 03:40:44;;;;;;;56.37;29.87;;;;;;;;;;10322660;28;20556;-84
2023/12/23 03:45:47;;;;;;;53.85;28.95;;;;;;;;;;10326902;28;20466;-83
2023/12/23 03:50:49;;;;;;;55.28;28.83;;;;;;;;;;10328000;28;20413;-84
2023/12/23 03:55:53;;;;;;;55.13;30.48;;;;;;;;;;10326429;28;20471;-84
2023/12/23 04:00:55;;;;;;;55.40;29.80;;;;;;;;;;10324378;28;20414;-84
2023/12/23 04:05:58;;;;;;;54.83;29.42;;;;;;;;;;10326719;28;20910;-84
2023/12/23 04:11:02;;;;;;;53.95;29.67;;;;;;;;;;10322794;28;20421;-84
2023/12/23 04:16:05;;;;;;;57.20;30.35;;;;;;;;;;10326605;28;20479;-84
2023/12/23 04:21:09;;;;;;;59.30;30.70;;;;;;;;;;10330502;28;20946;-84
2023/12/23 04:26:14;;;;;;;61.45;30.75;;;;;;;;;;10325929;28;20977;-84
2023/12/23 04:31:17;;;;;;;56.55;31.88;;;;;;;;;;10324750;28;20473;-84
2023/12/23 04:36:19;;;;;;;59.08;31.15;;;;;;;;;;10326101;28;20927;-84
2023/12/23 04:41:23;;;;;;;57.13;29.98;;;;;;;;;;10325039;28;20819;-84
2023/12/23 04:46:26;;;;;;;60.25;30.05;;;;;;;;;;10328132;28;20456;-84
2023/12/23 04:51:28;;;;;;;55.38;29.13;;;;;;;;;;10323539;28;20447;-84
2023/12/23 04:56:32;;;;;;;55.03;29.20;;;;;;;;;;10325230;28;20894;-84
2023/12/23 05:01:34;;;;;;;56.33;29.00;;;;;;;;;;10321908;28;20417;-83
2023/12/23 05:06:37;;;;;;;49.90;26.40;;;;;;;;;;10326601;28;20421;-84
2023/12/23 05:11:41;;;;;;;52.77;26.60;;;;;;;;;;10325030;28;20497;-85
2023/12/23 05:16:43;;;;;;;51.97;25.98;;;;;;;;;;10326572;28;20436;-84
2023/12/23 05:21:46;;;;;;;59.72;30.67;;;;;;;;;;10323208;28;20471;-84
2023/12/23 05:26:49;;;;;;;54.00;27.37;;;;;;;;;;10317386;28;20453;-84
2023/12/23 05:31:52;;;;;;;52.67;26.83;;;;;;;;;;10323554;28;20455;-84
2023/12/23 05:36:54;;;;;;;50.65;26.33;;;;;;;;;;10328076;28;20475;-84
2023/12/23 05:41:59;;;;;;;53.03;28.58;;;;;;;;;;10322915;28;20895;-84
2023/12/23 05:47:02;;;;;;;58.40;28.60;;;;;;;;;;10323377;28;20452;-84
2023/12/23 05:52:04;;;;;;;52.72;26.77;;;;;;;;;;10322232;28;20463;-84
2023/12/23 05:57:08;;;;;;;58.83;29.77;;;;;;;;;;10302316;28;20448;-84
2023/12/23 06:02:11;;;;;;;66.53;31.83;;;;;;;;;;10317814;28;20513;-84
2023/12/23 06:07:14;;;;;;;58.67;29.95;;;;;;;;;;10320949;28;20452;-84
2023/12/23 06:12:18;;;;;;;55.03;28.60;;;;;;;;;;10321508;28;20409;-84
2023/12/23 06:17:20;;;;;;;56.17;28.15;;;;;;;;;;10323691;28;20897;-83
2023/12/23 06:22:23;;;;;;;56.33;27.70;;;;;;;;;;10321080;28;20404;-84
2023/12/23 06:27:27;;;;;;;54.63;28.13;;;;;;;;;;10321296;28;20421;-84
2023/12/23 06:32:29;;;;;;;50.90;26.98;;;;;;;;;;10321304;28;20897;-83
2023/12/23 06:37:31;;;;;;;53.10;27.27;;;;;;;;;;10323842;28;20969;-84
2023/12/23 06:42:35;;;;;;;52.33;26.23;;;;;;;;;;10329166;28;20416;-84
2023/12/23 06:47:38;;;;;;;51.55;26.50;;;;;;;;;;10330541;28;20514;-83
2023/12/23 06:52:41;;;;;;;51.57;27.23;;;;;;;;;;10334044;28;20499;-84
2023/12/23 06:57:45;;;;;;;49.00;25.05;;;;;;;;;;10334321;28;20409;-84
2023/12/23 07:02:49;;;;;;;75.50;38.17;;;;;;;;;;10324736;28;20436;-84
2023/12/23 07:07:51;;;;;;;68.30;34.80;;;;;;;;;;10329173;28;20772;-84
2023/12/23 07:12:55;;;;;;;94.35;47.03;;;;;;;;;;10327446;28;20409;-84
2023/12/23 07:17:58;;;;;;;61.00;31.30;;;;;;;;;;10326246;28;20475;-84
2023/12/23 07:23:00;;;;;;;55.67;28.70;;;;;;;;;;10328848;28;20702;-84
2023/12/23 07:28:04;;;;;;;50.03;26.08;;;;;;;;;;10325966;28;20779;-84
2023/12/23 07:33:07;;;;;;;56.30;27.17;;;;;;;;;;10330000;28;20775;-84
2023/12/23 07:38:09;;;;;;;46.97;26.42;;;;;;;;;;10328253;28;20414;-83
2023/12/23 07:43:13;;;;;;;56.70;29.90;;;;;;;;;;10329058;28;20444;-84
2023/12/23 07:48:15;;;;;;;57.77;28.90;;;;;;;;;;10328238;28;20416;-84
2023/12/23 07:53:18;;;;;;;52.60;28.13;;;;;;;;;;10326902;28;20475;-84
2023/12/23 07:58:21;;;;;;;50.85;27.25;;;;;;;;;;10327589;28;20405;-84
2023/12/23 08:03:24;;;;;;;53.50;26.98;;;;;;;;;;10317879;28;20409;-84
2023/12/23 08:08:26;;;;;;;52.83;27.97;;;;;;;;;;10326165;28;20779;-83
2023/12/23 08:13:30;;;;;;;57.67;28.40;;;;;;;;;;10334669;28;20416;-83
2023/12/23 08:18:33;;;;;;;54.03;27.70;;;;;;;;;;10327815;28;20408;-84
2023/12/23 08:23:35;;;;;;;53.20;27.23;;;;;;;;;;10325209;28;20470;-84
2023/12/23 08:28:44;;;;;;;52.47;27.10;;;;;;;;;;10308605;28;20465;-84
2023/12/23 08:33:47;;;;;;;50.58;27.05;;;;;;;;;;10307146;28;20421;-83
2023/12/23 08:38:54;;;;;;;47.70;27.17;;;;;;;;;;10315458;28;20492;-86
2023/12/23 08:43:58;;;;;;;49.15;25.42;;;;;;;;;;10317936;28;20507;-86
2023/12/23 08:49:01;;;;;;;52.75;27.02;;;;;;;;;;10311878;28;20520;-87
2023/12/23 08:54:06;;;;;;;51.23;26.93;;;;;;;;;;10308201;28;20449;-86
2023/12/23 08:59:12;;;;;;;52.50;27.88;;;;;;;;;;10294133;28;20498;-87
2023/12/23 09:04:15;;;;;;;50.40;27.02;;;;;;;;;;10311687;28;20959;-87
2023/12/23 09:09:17;;;;;;;48.93;25.67;;;;;;;;;;10310891;28;20516;-86
2023/12/23 09:14:21;;;;;;;52.75;28.08;;;;;;;;;;10308042;28;20416;-86
2023/12/23 09:19:23;;;;;;;50.77;27.63;;;;;;;;;;10312877;28;20417;-87
2023/12/23 09:24:26;;;;;;;46.40;25.08;;;;;;;;;;10308122;28;20467;-87
2023/12/23 09:29:29;;;;;;;54.22;26.65;;;;;;;;;;10313567;28;20488;-86
2023/12/23 09:34:32;;;;;;;50.58;27.83;;;;;;;;;;10314271;28;20453;-86
2023/12/23 09:39:34;;;;;;;47.78;25.50;;;;;;;;;;10312567;28;20440;-86
2023/12/23 09:45:02;;;;;;;51.17;27.63;;;;;;;;;;10308291;28;20487;-86
2023/12/23 09:50:05;;;;;;;52.67;27.27;;;;;;;;;;10302698;28;20454;-87
2023/12/23 09:55:11;;;;;;;51.17;26.87;;;;;;;;;;10309546;28;20444;-86
2023/12/23 10:00:16;;;;;;;52.58;26.88;;;;;;;;;;10298204;28;20429;-87
2023/12/23 10:05:19;;;;;;;54.27;28.23;;;;;;;;;;10291769;28;20456;-87
2023/12/23 10:10:21;;;;;;;51.60;27.83;;;;;;;;;;10295761;28;20460;-86
2023/12/23 10:15:25;;;;;;;50.88;26.15;;;;;;;;;;10313604;28;20405;-85
2023/12/23 10:20:28;;;;;;;43.92;24.83;;;;;;;;;;10317862;28;20444;-86
2023/12/23 10:25:30;;;;;;;43.83;22.90;;;;;;;;;;10306819;28;20520;-87
2023/12/23 10:30:38;;;;;;;38.07;21.70;;;;;;;;;;10306096;28;20489;-88
2023/12/23 10:35:45;;;;;;;45.50;22.90;;;;;;;;;;10321814;28;20471;-87
2023/12/23 10:40:54;;;;;;;41.40;23.45;;;;;;;;;;10316828;28;20818;-88
2023/12/23 10:46:00;;;;;;;44.10;23.88;;;;;;;;;;10316276;28;20479;-88
2023/12/23 10:51:03;;;;;;;40.87;23.03;;;;;;;;;;10313008;28;20515;-88
2023/12/23 10:56:08;;;;;;;40.97;22.92;;;;;;;;;;10320113;28;20417;-87
2023/12/23 11:01:14;;;;;;;37.10;21.70;;;;;;;;;;10294798;28;20409;-87
2023/12/23 11:06:18;;;;;;;46.85;23.45;;;;;;;;;;10320957;28;20448;-86
2023/12/23 11:11:21;;;;;;;37.67;22.80;;;;;;;;;;10306543;28;20456;-78
2023/12/23 11:16:26;;;;;;;40.60;22.65;;;;;;;;;;10321004;28;20507;-83
2023/12/23 11:21:29;;;;;;;39.95;22.25;;;;;;;;;;10314953;28;20413;-84
2023/12/23 11:26:42;;;;;;;44.40;24.20;;;;;;;;;;10316564;28;20453;-84
2023/12/23 11:31:46;;;;;;;41.72;23.38;;;;;;;;;;10316572;28;20405;-83
2023/12/23 11:36:48;;;;;;;41.30;23.80;;;;;;;;;;10312196;28;20444;-83
2023/12/23 11:41:50;;;;;;;43.43;24.27;;;;;;;;;;10315350;28;20456;-84
2023/12/23 11:46:55;;;;;;;41.33;24.33;;;;;;;;;;10308808;28;20453;-83
2023/12/23 11:51:58;;;;;;;43.30;24.67;;;;;;;;;;10312733;28;21113;-84
2023/12/23 11:57:00;;;;;;;45.70;24.58;;;;;;;;;;10314102;28;20417;-83
2023/12/23 12:02:04;;;;;;;46.77;24.73;;;;;;;;;;10322329;28;20505;-82
2023/12/23 12:07:07;;;;;;;44.20;24.75;;;;;;;;;;10301600;28;21112;-82
2023/12/23 12:12:09;;;;;;;42.77;24.77;;;;;;;;;;10308323;28;20930;-78
2023/12/23 12:17:13;;;;;;;45.67;25.75;;;;;;;;;;10314216;28;20483;-83
2023/12/23 12:22:16;;;;;;;41.47;25.33;;;;;;;;;;10310380;28;20497;-84
2023/12/23 12:27:18;;;;;;;45.13;25.80;;;;;;;;;;10314656;28;20527;-83
2023/12/23 12:32:25;;;;;;;47.60;26.75;;;;;;;;;;10308995;28;20441;-83
2023/12/23 12:37:28;;;;;;;44.65;25.35;;;;;;;;;;10307359;28;20475;-83
2023/12/23 12:42:41;;;;;;;42.20;25.65;;;;;;;;;;10306502;28;20448;-84
2023/12/23 12:47:48;;;;;;;44.30;25.88;;;;;;;;;;10303089;28;20502;-84
2023/12/23 12:52:53;;;;;;;45.00;26.67;;;;;;;;;;10302100;28;20464;-84
2023/12/23 12:57:55;;;;;;;47.65;26.42;;;;;;;;;;10309174;28;20962;-85
2023/12/23 13:02:59;;;;;;;46.07;27.27;;;;;;;;;;10306111;28;20452;-86
2023/12/23 13:08:02;;;;;;;48.58;26.85;;;;;;;;;;10317489;28;20452;-85
2023/12/23 13:13:05;;;;;;;48.30;27.08;;;;;;;;;;10308633;28;20424;-85
2023/12/23 13:18:09;;;;;;;47.65;27.50;;;;;;;;;;10307781;28;20421;-84
2023/12/23 13:23:11;;;;;;;46.57;26.17;;;;;;;;;;10302840;28;21170;-85
2023/12/23 13:28:13;;;;;;;46.03;26.97;;;;;;;;;;10309551;28;21034;-85
2023/12/23 13:33:19;;;;;;;47.70;28.23;;;;;;;;;;10307448;28;20512;-85
2023/12/23 13:38:25;;;;;;;45.60;27.13;;;;;;;;;;10308851;28;20452;-84
2023/12/23 13:43:27;;;;;;;47.80;27.70;;;;;;;;;;10307240;28;20907;-84
2023/12/23 13:48:31;;;;;;;49.75;28.20;;;;;;;;;;10311511;28;20460;-83
2023/12/23 13:53:33;;;;;;;46.38;28.08;;;;;;;;;;10313416;28;20461;-84
2023/12/23 13:58:36;;;;;;;50.67;28.23;;;;;;;;;;10301988;28;20477;-84
2023/12/23 14:03:40;;;;;;;46.05;27.55;;;;;;;;;;10313060;28;20468;-83
2023/12/23 14:08:42;;;;;;;43.27;26.60;;;;;;;;;;10310167;28;20523;-82
2023/12/23 14:13:44;;;;;;;44.72;28.25;;;;;;;;;;10318358;23;20507;-83
2023/12/23 14:18:49;;;;;;;43.35;27.92;;;;;;;;;;10298989;28;20491;-83
2023/12/23 14:23:51;;;;;;;45.85;28.85;;;;;;;;;;10301733;28;20440;-83
2023/12/23 14:28:54;;;;;;;50.03;29.33;;;;;;;;;;10326049;28;20467;-83
2023/12/23 14:33:58;;;;;;;48.57;28.37;;;;;;;;;;10299236;28;20452;-84
2023/12/23 14:39:00;;;;;;;46.95;28.55;;;;;;;;;;10307140;28;20974;-85
2023/12/23 14:44:05;;;;;;;47.63;29.13;;;;;;;;;;10300667;28;20926;-83
2023/12/23 14:49:10;;;;;;;49.20;28.73;;;;;;;;;;10285145;28;20466;-82
2023/12/23 14:54:12;;;;;;;48.42;29.48;;;;;;;;;;10292071;28;21148;-83
2023/12/23 14:59:14;;;;;;;45.80;27.98;;;;;;;;;;10268226;28;20522;-82
2023/12/23 15:04:18;;;;;;;50.43;29.07;;;;;;;;;;10284111;28;20481;-83
2023/12/23 15:09:21;;;;;;;49.35;28.52;;;;;;;;;;10286616;28;20450;-83
2023/12/23 15:14:23;;;;;;;50.85;30.00;;;;;;;;;;10286853;28;20456;-82
2023/12/23 15:19:27;;;;;;;54.60;31.23;;;;;;;;;;10285567;28;20532;-83
2023/12/23 15:24:30;;;;;;;56.15;32.70;;;;;;;;;;10293432;28;20521;-82
2023/12/23 15:29:32;;;;;;;60.75;35.25;;;;;;;;;;10283351;28;20501;-82
2023/12/23 15:34:36;;;;;;;56.40;33.23;;;;;;;;;;10287825;28;20537;-84
2023/12/23 15:39:38;;;;;;;59.33;32.70;;;;;;;;;;10301598;28;21036;-83
2023/12/23 15:44:41;;;;;;;56.92;32.85;;;;;;;;;;10306162;28;20417;-83
2023/12/23 15:49:45;;;;;;;55.73;31.67;;;;;;;;;;10288403;28;20548;-83
2023/12/23 15:54:49;;;;;;;54.85;32.28;;;;;;;;;;10290700;28;20459;-83
2023/12/23 15:59:51;;;;;;;53.10;30.92;;;;;;;;;;10284057;28;20450;-84
2023/12/23 16:04:57;;;;;;;60.57;32.23;;;;;;;;;;10289610;28;20446;-84
2023/12/23 16:09:59;;;;;;;54.57;30.90;;;;;;;;;;10293694;28;20496;-84
2023/12/23 16:15:02;;;;;;;55.38;32.65;;;;;;;;;;10296170;28;20522;-84
2023/12/23 16:20:07;;;;;;;54.97;31.80;;;;;;;;;;10302942;28;20453;-85
2023/12/23 16:25:11;;;;;;;57.50;33.38;;;;;;;;;;10303407;28;20456;-85
2023/12/23 16:30:17;;;;;;;75.57;37.95;;;;;;;;;;10297791;28;20550;-84
2023/12/23 16:35:21;;;;;;;73.22;37.28;;;;;;;;;;10294545;28;21218;-84
2023/12/23 16:40:23;;;;;;;61.90;32.97;;;;;;;;;;10296152;28;20492;-84
2023/12/23 16:45:25;;;;;;;66.95;36.60;;;;;;;;;;10302035;28;20511;-84
2023/12/23 16:50:30;;;;;;;66.47;37.50;;;;;;;;;;10297794;28;20534;-84
2023/12/23 16:55:32;;;;;;;65.32;36.65;;;;;;;;;;10297102;28;20926;-84
2023/12/23 17:00:34;;;;;;;64.28;36.67;;;;;;;;;;10299528;28;20477;-85
2023/12/23 17:05:38;;;;;;;65.07;35.17;;;;;;;;;;10289213;28;20463;-84
2023/12/23 17:10:43;;;;;;;58.77;32.93;;;;;;;;;;10279380;28;21868;-84
2023/12/23 17:15:45;;;;;;;60.13;33.92;;;;;;;;;;10296234;28;21325;-84
2023/12/23 17:20:49;;;;;;;60.10;32.65;;;;;;;;;;10290462;28;20782;-83
2023/12/23 17:25:52;;;;;;;57.58;33.30;;;;;;;;;;10293501;28;20435;-83
2023/12/23 17:30:54;;;;;;;65.17;35.83;;;;;;;;;;10294398;28;20655;-84
2023/12/23 17:35:58;;;;;;;58.65;32.28;;;;;;;;;;10303590;28;20476;-84
2023/12/23 17:41:00;;;;;;;57.30;30.57;;;;;;;;;;10294070;28;20489;-83
2023/12/23 17:46:03;;;;;;;58.70;33.17;;;;;;;;;;10289409;28;20532;-84
2023/12/23 17:51:07;;;;;;;67.15;38.40;;;;;;;;;;10297378;28;20555;-84
2023/12/23 17:56:10;;;;;;;67.32;36.90;;;;;;;;;;10299538;28;20528;-84
2023/12/23 18:01:13;;;;;;;67.97;38.90;;;;;;;;;;10291681;28;20686;-84
2023/12/23 18:06:17;;;;;;;71.63;39.30;;;;;;;;;;10294587;28;20456;-84
2023/12/23 18:11:19;;;;;;;72.77;40.53;;;;;;;;;;10298202;28;21300;-84
2023/12/23 18:16:22;;;;;;;74.38;43.35;;;;;;;;;;10300425;28;20456;-85
2023/12/23 18:21:25;;;;;;;141.02;63.05;;;;;;;;;;10305628;28;20996;-89
2023/12/23 18:26:28;;;;;;;75.75;44.03;;;;;;;;;;10306083;28;20515;-85
2023/12/23 18:31:30;;;;;;;87.00;47.95;;;;;;;;;;10312122;28;20578;-86
2023/12/23 18:36:34;;;;;;;83.43;45.00;;;;;;;;;;10303873;28;20483;-85
2023/12/23 18:41:37;;;;;;;78.10;44.10;;;;;;;;;;10303406;28;20520;-86
2023/12/23 18:46:39;;;;;;;98.75;52.00;;;;;;;;;;10310308;28;21015;-86
2023/12/23 18:51:43;;;;;;;98.90;53.08;;;;;;;;;;10312733;28;20451;-86
2023/12/23 18:56:45;;;;;;;171.90;80.10;;;;;;;;;;10293221;28;20469;-84
2023/12/23 19:01:50;;;;;;;140.83;67.30;;;;;;;;;;10293644;28;20434;-84
2023/12/23 19:06:54;;;;;;;83.27;48.20;;;;;;;;;;10309502;28;20459;-85
2023/12/23 19:11:57;;;;;;;102.57;54.45;;;;;;;;;;10286722;28;20525;-84
2023/12/23 19:16:59;;;;;;;100.87;53.00;;;;;;;;;;10297985;28;20444;-85
2023/12/23 19:22:03;;;;;;;90.72;50.28;;;;;;;;;;10305061;28;20495;-85
2023/12/23 19:27:05;;;;;;;90.47;49.93;;;;;;;;;;10307996;28;20458;-85
2023/12/23 19:32:08;;;;;;;84.53;47.72;;;;;;;;;;10314527;28;20544;-84
2023/12/23 19:37:12;;;;;;;83.68;46.80;;;;;;;;;;10315272;28;20920;-84
2023/12/23 19:42:15;;;;;;;87.80;49.40;;;;;;;;;;10305875;28;20954;-84
2023/12/23 19:47:18;;;;;;;87.43;49.28;;;;;;;;;;10293596;28;20478;-83
2023/12/23 19:52:21;;;;;;;82.75;48.20;;;;;;;;;;10299255;28;21833;-84
2023/12/23 19:57:41;;;;;;;80.88;45.92;;;;;;;;;;10293390;28;20531;-85
2023/12/23 20:02:43;;;;;;;85.83;46.50;;;;;;;;;;10298500;28;25121;-85
2023/12/23 20:07:48;;;;;;;87.85;48.90;;;;;;;;;;10303438;28;20458;-86
2023/12/23 20:12:50;;;;;;;84.47;47.70;;;;;;;;;;10301927;28;20536;-85
2023/12/23 20:18:28;;;;;;;82.38;46.10;;;;;;;;;;10295567;28;20408;-86
2023/12/23 20:23:32;;;;;;;79.45;45.28;;;;;;;;;;10303453;28;20511;-86
2023/12/23 20:28:34;;;;;;;83.25;45.50;;;;;;;;;;10294994;28;20456;-86
2023/12/23 20:33:36;;;;;;;83.03;45.83;;;;;;;;;;10299255;28;20460;-85
2023/12/23 20:38:40;;;;;;;78.57;42.88;;;;;;;;;;10307066;28;20465;-86
2023/12/23 20:43:42;;;;;;;80.43;44.40;;;;;;;;;;10305195;28;20453;-88
2023/12/23 20:48:47;;;;;;;77.22;43.10;;;;;;;;;;10307304;28;20439;-89
2023/12/23 20:53:52;;;;;;;84.63;47.63;;;;;;;;;;10324013;28;20431;-89
2023/12/23 20:58:54;;;;;;;77.00;43.73;;;;;;;;;;10309632;28;20807;-87
2023/12/23 21:03:57;;;;;;;70.63;40.88;;;;;;;;;;10303387;28;20477;-87
2023/12/23 21:09:01;;;;;;;70.45;40.40;;;;;;;;;;10313555;28;20446;-88
2023/12/23 21:14:03;;;;;;;72.87;39.77;;;;;;;;;;10304066;28;20471;-86
2023/12/23 21:19:06;;;;;;;68.07;39.88;;;;;;;;;;10304613;28;20456;-86
2023/12/23 21:24:09;;;;;;;78.95;41.55;;;;;;;;;;10309556;28;20438;-86
2023/12/23 21:29:12;;;;;;;78.43;43.00;;;;;;;;;;10313171;28;20432;-87
2023/12/23 21:34:14;;;;;;;73.50;42.33;;;;;;;;;;10311852;28;20461;-87
2023/12/23 21:39:18;;;;;;;77.60;41.73;;;;;;;;;;10307133;28;20437;-87
2023/12/23 21:44:21;;;;;;;74.97;42.90;;;;;;;;;;10308270;28;20993;-87
2023/12/23 21:49:23;;;;;;;70.70;40.97;;;;;;;;;;10317730;28;20425;-86
2023/12/23 21:54:27;;;;;;;72.90;40.17;;;;;;;;;;10306326;28;20424;-88
2023/12/23 21:59:29;;;;;;;74.90;41.77;;;;;;;;;;10305328;28;20547;-88
2023/12/23 22:04:32;;;;;;;70.03;39.45;;;;;;;;;;10320626;28;20441;-88
2023/12/23 22:09:35;;;;;;;75.65;40.53;;;;;;;;;;10332317;28;20479;-88
2023/12/23 22:14:38;;;;;;;72.78;39.97;;;;;;;;;;10315855;28;20832;-88
2023/12/23 22:19:40;;;;;;;73.27;38.67;;;;;;;;;;10319634;28;20481;-87
2023/12/23 22:24:44;;;;;;;77.65;42.55;;;;;;;;;;10314199;28;20616;-88
2023/12/23 22:29:47;;;;;;;77.30;41.55;;;;;;;;;;10313590;28;20970;-88
2023/12/23 22:34:52;;;;;;;78.38;41.38;;;;;;;;;;10308960;28;20410;-88
2023/12/23 22:40:00;;;;;;;75.03;40.15;;;;;;;;;;10313759;28;20455;-88
2023/12/23 22:45:02;;;;;;;70.17;38.23;;;;;;;;;;10327277;28;20406;-88
2023/12/23 22:50:06;;;;;;;73.68;40.28;;;;;;;;;;10314925;28;20957;-88
2023/12/23 22:55:11;;;;;;;76.38;40.45;;;;;;;;;;10319889;28;20408;-87
2023/12/23 23:00:20;;;;;;;69.18;39.92;;;;;;;;;;10317451;28;20403;-87
2023/12/23 23:05:25;;;;;;;74.00;41.85;;;;;;;;;;10314390;28;20392;-88
2023/12/23 23:10:29;;;;;;;75.53;40.25;;;;;;;;;;10310960;28;20414;-87
2023/12/23 23:15:31;;;;;;;74.05;41.28;;;;;;;;;;10312865;28;20438;-86
2023/12/23 23:20:33;;;;;;;75.35;41.03;;;;;;;;;;10329750;28;20398;-87
2023/12/23 23:25:37;;;;;;;76.32;42.10;;;;;;;;;;10330078;28;20477;-88
2023/12/23 23:30:40;;;;;;;78.05;41.50;;;;;;;;;;10310123;28;20436;-87
2023/12/23 23:35:42;;;;;;;76.32;41.67;;;;;;;;;;10299304;28;20432;-87
2023/12/23 23:40:48;;;;;;;72.30;40.75;;;;;;;;;;10311661;28;20885;-87
2023/12/23 23:45:52;;;;;;;74.03;41.47;;;;;;;;;;10309586;28;20401;-87
2023/12/23 23:50:54;;;;;;;72.28;38.13;;;;;;;;;;10310531;28;20491;-87
2023/12/23 23:55:58;;;;;;;74.05;38.42;;;;;;;;;;10320689;28;20750;-89
